Time;durP1;ratioP1;P1;durP2;ratioP2;P2;SDS_P1;SDS_P2;PMS_P1;PMS_P2;Temp;Humidity;BMP_temperature;BMP_pressure;BME280_temperature;BME280_humidity;BME280_pressure;Samples;Min_cycle;Max_cycle;Signal;HPM_P1;HPM_P2
2022/11/03 09:43:24;;;;;;;;;;;14.20;99.90;;;;;;5128480;27;19920;-42
2022/11/03 09:45:50;;;;;;;;;;;14.40;99.90;;;;;;5128887;28;19918;-41
2022/11/03 09:48:15;;;;;;;;;;;14.50;99.90;;;;;;5128747;28;20025;-40
2022/11/03 09:50:41;;;;;;;;;;;14.70;99.90;;;;;;5129183;28;19908;-40
2022/11/03 09:53:10;;;;;;;;;;;14.90;99.90;;;;;;5129153;27;19911;-40
2022/11/03 09:55:38;;;;;;;;;;;15.10;99.90;;;;;;5127730;27;20429;-39
2022/11/03 09:58:13;;;;;;;;;;;15.40;99.90;;;;;;5129250;27;19907;-41
2022/11/03 10:00:39;;;;;;;;;;;15.60;99.90;;;;;;5128644;27;19912;-41
2022/11/03 10:03:04;;;;;;;;;;;15.80;99.90;;;;;;5127795;28;19938;-40
2022/11/03 10:05:30;;;;;;;;;;;15.80;99.90;;;;;;5127866;27;20376;-41
2022/11/03 10:08:04;;;;;;;;;;;15.80;99.90;;;;;;5129031;28;19908;-40
2022/11/03 10:10:30;;;;;;;;;;;15.70;99.90;;;;;;5128717;27;19915;-40
2022/11/03 10:12:56;;;;;;;;;;;15.70;99.90;;;;;;5127413;27;20482;-44
2022/11/03 10:15:23;;;;;;;;;;;15.60;99.90;;;;;;5127530;28;19986;-40
2022/11/03 10:17:49;;;;;;;;;;;15.60;99.90;;;;;;5129048;27;19916;-39
2022/11/03 10:20:17;;;;;;;;;;;15.60;99.90;;;;;;5129504;27;19911;-45
2022/11/03 10:22:43;;;;;;;;;;;15.60;99.90;;;;;;5127650;28;19911;-42
2022/11/03 10:25:27;;;;;;;;;;;15.80;99.90;;;;;;5129883;27;19915;-40
2022/11/03 10:28:09;;;;;;;;;;;15.90;99.90;;;;;;5128694;27;19935;-39
2022/11/03 10:30:46;;;;;;;;;;;15.90;99.90;;;;;;5128043;27;19961;-41
2022/11/03 10:33:50;;;;;;;;;;;16.00;99.90;;;;;;5129013;27;19927;-43
2022/11/03 10:36:16;;;;;;;;;;;16.00;99.90;;;;;;5060170;28;19940;-42
2022/11/03 10:38:45;;;;;;;;;;;16.00;99.90;;;;;;5056411;28;19913;-41
2022/11/03 10:41:11;;;;;;;;;;;15.90;99.90;;;;;;5079935;28;20267;-42
2022/11/03 10:43:41;;;;;;;;;;;15.90;99.90;;;;;;5117762;28;19919;-41
2022/11/03 10:46:09;;;;;;;;;;;15.80;99.90;;;;;;5115343;28;19943;-42
2022/11/03 10:48:35;;;;;;;;;;;15.80;99.90;;;;;;5115499;28;19920;-41
2022/11/03 10:51:01;;;;;;;;;;;15.90;99.90;;;;;;5114217;28;19915;-40
2022/11/03 10:53:26;;;;;;;;;;;15.90;99.90;;;;;;5114918;28;19916;-41
2022/11/03 10:55:52;;;;;;;;;;;16.00;99.90;;;;;;5114320;28;20251;-42
2022/11/03 10:58:18;;;;;;;;;;;16.00;99.90;;;;;;5113726;28;19915;-43
2022/11/03 11:00:44;;;;;;;;;;;16.00;99.90;;;;;;5115314;28;19912;-40
2022/11/03 11:03:10;;;;;;;;;;;15.90;99.90;;;;;;5115146;28;19999;-43
2022/11/03 11:05:42;;;;;;;;;;;16.00;99.90;;;;;;5114241;28;19911;-40
2022/11/03 11:08:08;;;;;;;;;;;16.10;99.90;;;;;;5115127;28;19915;-41
2022/11/03 11:10:33;;;;;;;;;;;16.30;99.90;;;;;;5113977;28;19908;-40
2022/11/03 11:13:20;;;;;;;;;;;16.50;99.90;;;;;;5114326;28;19919;-42
2022/11/03 11:15:56;;;;;;;;;;;16.60;99.90;;;;;;5114782;27;19908;-39
2022/11/03 11:18:44;;;;;;;;;;;16.60;99.90;;;;;;5127089;27;19930;-43
2022/11/03 11:21:16;;;;;;;;;;;16.60;99.90;;;;;;5100945;28;19908;-44
2022/11/03 11:23:43;;;;;;;;;;;16.70;99.90;;;;;;5113066;28;19908;-41
2022/11/03 11:26:08;;;;;;;;;;;16.50;99.90;;;;;;5112131;28;19915;-41
2022/11/03 11:28:41;;;;;;;;;;;16.50;99.90;;;;;;5112832;28;19918;-41
2022/11/03 11:31:30;;;;;;;;;;;16.50;99.90;;;;;;5112955;28;20068;-41
2022/11/03 11:34:18;;;;;;;;;;;16.50;99.90;;;;;;5104285;27;19912;-40
2022/11/03 11:36:45;;;;;;;;;;;16.40;99.90;;;;;;5105120;28;19911;-40
2022/11/03 11:39:11;;;;;;;;;;;16.40;99.90;;;;;;5113423;28;20362;-40
2022/11/03 11:41:55;;;;;;;;;;;16.40;99.90;;;;;;5112381;27;19924;-41
2022/11/03 11:44:40;;;;;;;;;;;16.30;99.90;;;;;;5124711;27;19970;-42
2022/11/03 11:47:17;;;;;;;;;;;16.30;99.90;;;;;;5112526;28;20077;-40
2022/11/03 11:49:42;;;;;;;;;;;16.30;99.90;;;;;;5113339;28;20427;-41
2022/11/03 11:52:08;;;;;;;;;;;16.20;99.90;;;;;;5111776;28;19927;-40
2022/11/03 11:54:33;;;;;;;;;;;16.20;99.90;;;;;;5111005;28;20052;-42
2022/11/03 11:56:59;;;;;;;;;;;16.20;99.90;;;;;;5113569;28;19912;-44
2022/11/03 11:59:24;;;;;;;;;;;16.10;99.90;;;;;;5112784;28;20277;-42
2022/11/03 12:01:51;;;;;;;;;;;16.10;99.90;;;;;;5111524;28;19957;-42
2022/11/03 12:04:19;;;;;;;;;;;16.00;99.90;;;;;;5113045;28;20365;-46
2022/11/03 12:06:44;;;;;;;;;;;16.00;99.90;;;;;;5112943;28;19912;-41
2022/11/03 12:09:20;;;;;;;;;;;15.90;99.90;;;;;;5113374;28;19907;-42
2022/11/03 12:11:49;;;;;;;;;;;15.90;99.90;;;;;;5113675;28;19915;-40
2022/11/03 12:14:34;;;;;;;;;;;15.80;99.90;;;;;;5113836;28;19911;-41
2022/11/03 12:17:15;;;;;;;;;;;15.80;99.90;;;;;;5113131;28;20274;-40
2022/11/03 12:19:49;;;;;;;;;;;15.70;99.90;;;;;;5113405;28;19977;-40
2022/11/03 12:22:28;;;;;;;;;;;15.70;99.90;;;;;;5112105;28;20362;-42
2022/11/03 12:24:53;;;;;;;;;;;15.60;99.90;;;;;;5110305;28;20376;-40
2022/11/03 12:27:38;;;;;;;;;;;15.60;99.90;;;;;;5113749;28;19986;-41
2022/11/03 12:30:10;;;;;;;;;;;15.60;99.90;;;;;;5113811;28;19919;-40
2022/11/03 12:32:35;;;;;;;;;;;15.60;99.90;;;;;;5113488;28;19931;-40
2022/11/03 12:35:01;;;;;;;;;;;15.60;99.90;;;;;;5114166;28;20272;-42
2022/11/03 12:37:27;;;;;;;;;;;15.50;99.90;;;;;;5113183;28;19912;-39
2022/11/03 12:39:52;;;;;;;;;;;15.50;99.90;;;;;;5114030;28;19990;-41
2022/11/03 12:42:18;;;;;;;;;;;15.50;99.90;;;;;;5113227;28;19919;-40
2022/11/03 12:44:44;;;;;;;;;;;15.50;99.90;;;;;;5113302;28;19919;-43
2022/11/03 12:47:09;;;;;;;;;;;15.50;99.90;;;;;;5113873;28;19908;-42
2022/11/03 12:49:35;;;;;;;;;;;15.40;99.90;;;;;;5113506;28;19964;-41
2022/11/03 12:52:05;;;;;;;;;;;15.50;99.90;;;;;;5113383;28;20370;-41
2022/11/03 12:54:31;;;;;;;;;;;15.60;99.90;;;;;;5112834;28;20365;-40
2022/11/03 12:56:56;;;;;;;;;;;15.60;99.90;;;;;;5113180;28;19912;-41
2022/11/03 12:59:22;;;;;;;;;;;15.70;99.90;;;;;;5113290;28;19908;-41
2022/11/03 13:01:47;;;;;;;;;;;15.80;99.90;;;;;;5113532;28;19908;-42
2022/11/03 13:04:13;;;;;;;;;;;15.80;99.90;;;;;;5112853;28;19951;-40
2022/11/03 13:06:38;;;;;;;;;;;15.90;99.90;;;;;;5112690;28;20415;-44
2022/11/03 13:09:04;;;;;;;;;;;16.00;99.90;;;;;;5113210;28;19912;-41
2022/11/03 13:14:14;;;;;;;;;;;16.10;99.90;;;;;;5113345;28;19914;-40
2022/11/03 13:16:39;;;;;;;;;;;16.10;99.90;;;;;;5113177;28;19911;-41
2022/11/03 13:19:05;;;;;;;;;;;16.30;99.90;;;;;;5112957;28;19912;-41
2022/11/03 13:21:30;;;;;;;;;;;16.40;99.90;;;;;;5113008;28;20323;-44
2022/11/03 13:23:56;;;;;;;;;;;16.50;99.90;;;;;;5112927;28;19908;-42
2022/11/03 13:26:21;;;;;;;;;;;16.50;99.90;;;;;;5112407;28;19911;-43
2022/11/03 13:28:47;;;;;;;;;;;16.60;99.90;;;;;;5113294;28;19911;-41
2022/11/03 13:31:12;;;;;;;;;;;16.60;99.90;;;;;;5113309;28;20302;-41
2022/11/03 13:33:38;;;;;;;;;;;16.60;99.90;;;;;;5111874;28;19912;-40
2022/11/03 13:36:03;;;;;;;;;;;16.60;99.90;;;;;;5113352;28;20057;-42
2022/11/03 13:38:29;;;;;;;;;;;16.50;99.90;;;;;;5112894;28;20234;-42
2022/11/03 13:40:54;;;;;;;;;;;16.50;99.90;;;;;;5112584;28;19908;-42
2022/11/03 13:43:20;;;;;;;;;;;16.60;99.90;;;;;;5112701;28;19920;-42
2022/11/03 13:45:45;;;;;;;;;;;16.60;99.90;;;;;;5113067;28;20269;-40
2022/11/03 13:48:12;;;;;;;;;;;16.60;99.90;;;;;;5112582;28;19908;-40
2022/11/03 13:50:37;;;;;;;;;;;16.60;99.90;;;;;;5112644;28;19927;-40
2022/11/03 13:53:03;;;;;;;;;;;16.50;99.90;;;;;;5112659;28;19919;-41
2022/11/03 13:55:28;;;;;;;;;;;16.40;99.90;;;;;;5111940;28;19912;-43
2022/11/03 13:57:54;;;;;;;;;;;16.30;99.90;;;;;;5113184;28;19961;-41
2022/11/03 14:00:19;;;;;;;;;;;16.10;99.90;;;;;;5112255;28;19908;-40
2022/11/03 14:02:45;;;;;;;;;;;16.00;99.90;;;;;;5112635;28;19912;-40
2022/11/03 14:05:12;;;;;;;;;;;15.90;99.90;;;;;;5113025;28;20466;-40
2022/11/03 14:07:38;;;;;;;;;;;15.80;99.90;;;;;;5112069;28;19907;-44
2022/11/03 14:10:04;;;;;;;;;;;15.80;99.90;;;;;;5112432;28;20259;-40
2022/11/03 14:12:29;;;;;;;;;;;15.70;99.90;;;;;;5112633;28;19915;-40
2022/11/03 14:14:55;;;;;;;;;;;15.60;99.90;;;;;;5111446;28;19922;-41
2022/11/03 14:17:20;;;;;;;;;;;15.60;99.90;;;;;;5112612;28;19908;-41
2022/11/03 14:19:46;;;;;;;;;;;15.50;99.90;;;;;;5116529;28;20243;-41
2022/11/03 14:22:11;;;;;;;;;;;15.50;99.90;;;;;;5115926;28;19918;-41
2022/11/03 14:24:37;;;;;;;;;;;15.50;99.90;;;;;;5116335;28;19947;-41
2022/11/03 14:27:02;;;;;;;;;;;15.50;99.90;;;;;;5116443;28;20002;-41
2022/11/03 14:29:28;;;;;;;;;;;15.40;99.90;;;;;;5115547;28;19961;-40
2022/11/03 14:31:53;;;;;;;;;;;15.40;99.90;;;;;;5116138;28;19920;-40
2022/11/03 14:34:19;;;;;;;;;;;15.40;99.90;;;;;;5116076;28;19918;-42
2022/11/03 14:36:44;;;;;;;;;;;15.40;99.90;;;;;;5115946;28;20378;-41
2022/11/03 14:39:10;;;;;;;;;;;15.40;99.90;;;;;;5116503;28;19908;-43
2022/11/03 14:44:19;;;;;;;;;;;15.40;99.90;;;;;;5115232;28;19918;-42
2022/11/03 14:46:45;;;;;;;;;;;15.40;99.90;;;;;;5116047;28;19912;-45
2022/11/03 14:49:10;;;;;;;;;;;15.40;99.90;;;;;;5116017;28;19961;-41
2022/11/03 14:51:36;;;;;;;;;;;15.50;99.90;;;;;;5115228;28;19916;-43
2022/11/03 14:54:01;;;;;;;;;;;15.50;99.90;;;;;;5115919;28;19912;-41
2022/11/03 14:56:27;;;;;;;;;;;15.40;99.90;;;;;;5114397;28;19919;-42
2022/11/03 14:58:52;;;;;;;;;;;15.40;99.90;;;;;;5111986;28;19919;-46
2022/11/03 15:01:18;;;;;;;;;;;15.40;99.90;;;;;;5113788;28;19908;-41
2022/11/03 15:03:44;;;;;;;;;;;15.30;99.90;;;;;;5114098;27;20472;-43
2022/11/03 15:06:10;;;;;;;;;;;15.20;99.90;;;;;;5115118;28;19908;-41
2022/11/03 15:08:36;;;;;;;;;;;15.10;99.90;;;;;;5114666;27;20394;-41
2022/11/03 15:11:02;;;;;;;;;;;15.00;99.90;;;;;;5114199;28;19912;-41
2022/11/03 15:13:27;;;;;;;;;;;14.90;99.90;;;;;;5114092;28;19912;-42
2022/11/03 15:15:52;;;;;;;;;;;14.80;99.90;;;;;;5114631;28;20376;-41
2022/11/03 15:18:18;;;;;;;;;;;14.70;99.90;;;;;;5113627;28;19907;-41
2022/11/03 15:20:44;;;;;;;;;;;14.70;99.90;;;;;;5114600;28;20002;-39
2022/11/03 15:23:10;;;;;;;;;;;14.60;99.90;;;;;;5114445;28;19964;-42
2022/11/03 15:25:35;;;;;;;;;;;14.60;99.90;;;;;;5112598;28;20266;-41
2022/11/03 15:28:01;;;;;;;;;;;14.60;99.90;;;;;;5114498;28;19943;-41
2022/11/03 15:30:26;;;;;;;;;;;14.60;99.90;;;;;;5113445;28;19930;-40
2022/11/03 15:32:52;;;;;;;;;;;14.60;99.90;;;;;;5112735;28;19920;-41
2022/11/03 15:35:17;;;;;;;;;;;14.50;99.90;;;;;;5112995;28;19919;-41
2022/11/03 15:37:43;;;;;;;;;;;14.40;99.90;;;;;;5113634;28;20030;-40
2022/11/03 15:40:10;;;;;;;;;;;14.40;99.90;;;;;;5114462;28;19961;-40
2022/11/03 15:42:36;;;;;;;;;;;14.40;99.90;;;;;;5114602;28;19919;-40
2022/11/03 15:45:02;;;;;;;;;;;14.40;99.90;;;;;;5115226;28;19979;-40
2022/11/03 15:47:27;;;;;;;;;;;14.40;99.90;;;;;;5113654;28;20434;-41
2022/11/03 15:49:53;;;;;;;;;;;14.30;99.90;;;;;;5114964;28;19912;-40
2022/11/03 15:52:18;;;;;;;;;;;14.30;99.90;;;;;;5114910;28;20345;-41
2022/11/03 15:54:44;;;;;;;;;;;14.20;99.90;;;;;;5114300;28;19908;-42
2022/11/03 15:57:09;;;;;;;;;;;14.20;99.90;;;;;;5114532;28;19919;-40
2022/11/03 15:59:35;;;;;;;;;;;14.20;99.90;;;;;;5114436;28;19965;-43
2022/11/03 16:02:00;;;;;;;;;;;14.20;99.90;;;;;;5114247;28;20262;-40
2022/11/03 16:04:26;;;;;;;;;;;14.20;99.90;;;;;;5114576;28;19912;-41
2022/11/03 16:06:51;;;;;;;;;;;14.10;99.90;;;;;;5113681;28;19965;-40
2022/11/03 16:09:17;;;;;;;;;;;14.20;99.90;;;;;;5114458;28;19915;-44
2022/11/03 16:11:42;;;;;;;;;;;14.20;99.90;;;;;;5114589;28;20409;-40
2022/11/03 16:14:08;;;;;;;;;;;14.20;99.90;;;;;;5113794;28;20008;-41
2022/11/03 16:16:33;;;;;;;;;;;14.10;99.90;;;;;;5114088;28;19907;-41
2022/11/03 16:18:58;;;;;;;;;;;14.20;99.90;;;;;;5114045;28;20386;-41
2022/11/03 16:21:24;;;;;;;;;;;14.20;99.90;;;;;;5113809;28;19911;-42
2022/11/03 16:23:49;;;;;;;;;;;14.20;99.90;;;;;;5114384;28;19908;-40
2022/11/03 16:26:17;;;;;;;;;;;14.20;99.90;;;;;;5113697;28;19922;-41
2022/11/03 16:28:43;;;;;;;;;;;14.20;99.90;;;;;;5114004;28;20007;-40
2022/11/03 16:31:08;;;;;;;;;;;14.20;99.90;;;;;;5114023;28;20007;-41
2022/11/03 16:33:34;;;;;;;;;;;14.20;99.90;;;;;;5113925;28;19907;-41
2022/11/03 16:35:59;;;;;;;;;;;14.20;99.90;;;;;;5113109;28;20374;-45
2022/11/03 16:38:25;;;;;;;;;;;14.20;99.90;;;;;;5113904;28;20254;-41
2022/11/03 16:40:50;;;;;;;;;;;14.20;99.90;;;;;;5113446;28;19951;-40
2022/11/03 16:43:16;;;;;;;;;;;14.20;99.90;;;;;;5113265;28;19920;-42
2022/11/03 16:45:41;;;;;;;;;;;14.20;99.90;;;;;;5113208;28;20419;-41
2022/11/03 16:48:06;;;;;;;;;;;14.20;99.90;;;;;;5113072;28;19919;-40
2022/11/03 16:50:32;;;;;;;;;;;14.20;99.90;;;;;;5112348;28;19919;-41
2022/11/03 16:52:57;;;;;;;;;;;14.20;99.90;;;;;;5113643;28;20004;-41
2022/11/03 16:55:23;;;;;;;;;;;14.20;99.90;;;;;;5113334;28;19934;-40
2022/11/03 16:57:48;;;;;;;;;;;14.20;99.90;;;;;;5112970;28;19922;-41
2022/11/03 17:00:18;;;;;;;;;;;14.20;99.90;;;;;;5113364;28;19911;-43
2022/11/03 17:02:44;;;;;;;;;;;14.10;99.90;;;;;;5113562;28;19908;-40
2022/11/03 17:05:10;;;;;;;;;;;14.10;99.90;;;;;;5113150;28;19939;-41
2022/11/03 17:07:36;;;;;;;;;;;14.10;99.90;;;;;;5113407;28;20000;-41
2022/11/03 17:10:02;;;;;;;;;;;14.00;99.90;;;;;;5113538;28;20358;-47
2022/11/03 17:12:27;;;;;;;;;;;14.00;99.90;;;;;;5112884;28;20006;-43
2022/11/03 17:14:53;;;;;;;;;;;13.90;99.90;;;;;;5112980;28;19969;-42
2022/11/03 17:17:18;;;;;;;;;;;13.90;99.90;;;;;;5112670;28;20345;-39
2022/11/03 17:19:44;;;;;;;;;;;13.80;99.90;;;;;;5113402;28;19939;-42
2022/11/03 17:22:10;;;;;;;;;;;13.80;99.90;;;;;;5112734;28;19961;-41
2022/11/03 17:24:35;;;;;;;;;;;13.70;99.90;;;;;;5111651;28;20428;-41
2022/11/03 17:27:09;;;;;;;;;;;13.60;99.90;;;;;;5112583;28;19908;-40
2022/11/03 17:29:38;;;;;;;;;;;13.60;99.90;;;;;;5112227;28;20383;-39
2022/11/03 17:32:06;;;;;;;;;;;13.50;99.90;;;;;;5111668;28;20378;-44
2022/11/03 17:34:31;;;;;;;;;;;13.50;99.90;;;;;;5112240;28;19908;-41
2022/11/03 17:36:57;;;;;;;;;;;13.40;99.90;;;;;;5112394;28;20362;-41
2022/11/03 17:39:28;;;;;;;;;;;13.30;99.90;;;;;;5111436;28;19908;-40
2022/11/03 17:41:53;;;;;;;;;;;13.30;99.90;;;;;;5112322;28;20014;-41
2022/11/03 17:44:19;;;;;;;;;;;13.30;99.90;;;;;;5112021;28;20011;-40
2022/11/03 17:46:44;;;;;;;;;;;13.20;99.90;;;;;;5111676;28;19947;-41
2022/11/03 17:49:10;;;;;;;;;;;13.20;99.90;;;;;;5112437;28;20370;-39
2022/11/03 17:51:37;;;;;;;;;;;13.10;99.90;;;;;;5111966;28;19988;-40
2022/11/03 17:54:05;;;;;;;;;;;13.10;99.90;;;;;;5114066;28;20009;-39
2022/11/03 17:56:30;;;;;;;;;;;13.00;99.90;;;;;;5115893;28;20282;-40
2022/11/03 17:58:56;;;;;;;;;;;13.00;99.90;;;;;;5116419;28;20361;-39
2022/11/03 18:01:23;;;;;;;;;;;12.90;99.90;;;;;;5115428;28;20010;-40
2022/11/03 18:03:49;;;;;;;;;;;12.90;99.90;;;;;;5116429;28;20006;-39
2022/11/03 18:06:15;;;;;;;;;;;12.90;99.90;;;;;;5116380;28;19996;-39
2022/11/03 18:08:41;;;;;;;;;;;12.90;99.90;;;;;;5114965;28;20358;-40
2022/11/03 18:11:08;;;;;;;;;;;12.80;99.90;;;;;;5116060;28;19914;-40
2022/11/03 18:13:33;;;;;;;;;;;12.80;99.90;;;;;;5115168;28;19912;-39
2022/11/03 18:16:01;;;;;;;;;;;12.80;99.90;;;;;;5114850;28;19930;-41
2022/11/03 18:18:31;;;;;;;;;;;12.80;99.90;;;;;;5115864;28;20345;-40
2022/11/03 18:20:57;;;;;;;;;;;12.70;99.90;;;;;;5115235;28;19947;-40
2022/11/03 18:23:24;;;;;;;;;;;12.70;99.90;;;;;;5115807;28;19958;-40
2022/11/03 18:25:50;;;;;;;;;;;12.70;99.90;;;;;;5115917;28;19916;-39
2022/11/03 18:28:16;;;;;;;;;;;12.70;99.90;;;;;;5115106;28;19915;-39
2022/11/03 18:30:43;;;;;;;;;;;12.60;99.90;;;;;;5115826;28;19998;-39
2022/11/03 18:33:14;;;;;;;;;;;12.60;99.90;;;;;;5114235;28;19968;-42
2022/11/03 18:35:40;;;;;;;;;;;12.60;99.90;;;;;;5113612;28;19908;-37
2022/11/03 18:38:07;;;;;;;;;;;12.60;99.90;;;;;;5115455;28;19998;-38
2022/11/03 18:40:34;;;;;;;;;;;12.60;99.90;;;;;;5092934;28;20382;-38
2022/11/03 18:43:00;;;;;;;;;;;12.50;99.90;;;;;;5091053;28;20003;-39
2022/11/03 18:45:25;;;;;;;;;;;12.50;99.90;;;;;;5094186;28;20012;-39
2022/11/03 18:47:51;;;;;;;;;;;12.50;99.90;;;;;;5106381;28;19954;-39
2022/11/03 18:50:17;;;;;;;;;;;12.40;99.90;;;;;;5114211;28;19907;-39
2022/11/03 18:52:47;;;;;;;;;;;12.40;99.90;;;;;;5115383;28;19977;-40
2022/11/03 18:55:14;;;;;;;;;;;12.40;99.90;;;;;;5115476;28;20346;-39
2022/11/03 18:57:39;;;;;;;;;;;12.40;99.90;;;;;;5114429;28;19915;-39
2022/11/03 19:00:12;;;;;;;;;;;12.30;99.90;;;;;;5115310;28;19908;-38
2022/11/03 19:02:38;;;;;;;;;;;12.30;99.90;;;;;;5114293;28;19912;-38
2022/11/03 19:05:04;;;;;;;;;;;12.30;99.90;;;;;;5114718;28;20047;-40
2022/11/03 19:07:30;;;;;;;;;;;12.20;99.90;;;;;;5114863;28;20064;-39
2022/11/03 19:09:56;;;;;;;;;;;12.20;99.90;;;;;;5114216;28;19912;-40
2022/11/03 19:12:22;;;;;;;;;;;12.20;99.90;;;;;;5114716;28;19923;-39
2022/11/03 19:14:47;;;;;;;;;;;12.20;99.90;;;;;;5115094;28;20003;-40
2022/11/03 19:17:15;;;;;;;;;;;12.20;99.90;;;;;;5114065;28;19908;-39
2022/11/03 19:19:41;;;;;;;;;;;12.20;99.90;;;;;;5114579;28;19908;-40
2022/11/03 19:22:10;;;;;;;;;;;12.10;99.90;;;;;;5113449;28;19935;-38
2022/11/03 19:24:35;;;;;;;;;;;12.10;99.90;;;;;;5112461;28;19980;-40
2022/11/03 19:27:02;;;;;;;;;;;12.10;99.90;;;;;;5113100;28;19955;-40
2022/11/03 19:29:30;;;;;;;;;;;12.10;99.90;;;;;;5113127;28;19914;-39
2022/11/03 19:31:55;;;;;;;;;;;12.10;99.90;;;;;;5112322;28;19961;-40
2022/11/03 19:34:23;;;;;;;;;;;12.10;99.90;;;;;;5111787;28;19919;-40
2022/11/03 19:36:50;;;;;;;;;;;12.10;99.90;;;;;;5113080;28;19911;-38
2022/11/03 19:39:24;;;;;;;;;;;12.10;99.90;;;;;;5112207;28;20352;-38
2022/11/03 19:44:34;;;;;;;;;;;12.10;99.90;;;;;;5112824;28;19961;-42
2022/11/03 19:47:00;;;;;;;;;;;12.10;99.90;;;;;;5111978;28;19907;-39
2022/11/03 19:49:25;;;;;;;;;;;12.10;99.90;;;;;;5112602;28;20003;-39
2022/11/03 19:51:51;;;;;;;;;;;12.20;99.90;;;;;;5111938;28;19966;-44
2022/11/03 19:54:18;;;;;;;;;;;12.10;99.90;;;;;;5112525;28;19957;-49
2022/11/03 19:56:47;;;;;;;;;;;12.10;99.90;;;;;;5112777;28;19919;-39
2022/11/03 19:59:14;;;;;;;;;;;12.10;99.90;;;;;;5111872;28;19915;-38
2022/11/03 20:01:39;;;;;;;;;;;12.10;99.90;;;;;;5112309;28;19958;-40
2022/11/03 20:04:05;;;;;;;;;;;12.10;99.90;;;;;;5112426;28;19947;-40
2022/11/03 20:06:32;;;;;;;;;;;12.10;99.90;;;;;;5111729;28;20296;-39
2022/11/03 20:08:58;;;;;;;;;;;12.20;99.90;;;;;;5112714;28;19908;-38
2022/11/03 20:11:24;;;;;;;;;;;12.10;99.90;;;;;;5111920;28;19968;-38
2022/11/03 20:13:49;;;;;;;;;;;12.10;99.90;;;;;;5111920;28;19916;-38
2022/11/03 20:16:15;;;;;;;;;;;12.20;99.90;;;;;;5111412;28;19908;-38
2022/11/03 20:18:42;;;;;;;;;;;12.10;99.90;;;;;;5112045;28;21296;-39
2022/11/03 20:21:14;;;;;;;;;;;12.20;99.90;;;;;;5108550;28;19908;-39
2022/11/03 20:23:40;;;;;;;;;;;12.10;99.90;;;;;;5111269;28;20016;-42
2022/11/03 20:26:11;;;;;;;;;;;12.10;99.90;;;;;;5111818;28;19912;-38
2022/11/03 20:28:36;;;;;;;;;;;12.10;99.90;;;;;;5112338;28;19915;-40
2022/11/03 20:31:02;;;;;;;;;;;12.20;99.90;;;;;;5113048;28;19915;-38
2022/11/03 20:33:28;;;;;;;;;;;12.10;99.90;;;;;;5113208;28;20369;-39
2022/11/03 20:35:54;;;;;;;;;;;12.20;99.90;;;;;;5112538;28;20374;-39
2022/11/03 20:38:20;;;;;;;;;;;12.20;99.90;;;;;;5113082;28;19915;-38
2022/11/03 20:40:46;;;;;;;;;;;12.20;99.90;;;;;;5113578;28;19915;-39
2022/11/03 20:43:24;;;;;;;;;;;12.20;99.90;;;;;;5112021;28;19919;-38
2022/11/03 20:45:50;;;;;;;;;;;12.20;99.90;;;;;;5113245;28;19964;-39
2022/11/03 20:48:15;;;;;;;;;;;12.20;99.90;;;;;;5112494;28;19911;-38
2022/11/03 20:50:41;;;;;;;;;;;12.20;99.90;;;;;;5112949;28;19947;-40
2022/11/03 20:53:17;;;;;;;;;;;12.20;99.90;;;;;;5113066;28;19919;-41
2022/11/03 20:55:42;;;;;;;;;;;12.20;99.90;;;;;;5112390;28;20006;-40
2022/11/03 20:58:12;;;;;;;;;;;12.20;99.90;;;;;;5112954;28;20467;-38
2022/11/03 21:00:39;;;;;;;;;;;12.20;99.90;;;;;;5112847;28;19908;-38
2022/11/03 21:03:18;;;;;;;;;;;12.20;99.90;;;;;;5112233;28;19990;-40
2022/11/03 21:05:44;;;;;;;;;;;12.20;99.90;;;;;;5113038;28;19915;-39
2022/11/03 21:08:09;;;;;;;;;;;12.20;99.90;;;;;;5112892;28;19908;-38
2022/11/03 21:10:35;;;;;;;;;;;12.20;99.90;;;;;;5111664;28;19918;-39
2022/11/03 21:13:00;;;;;;;;;;;12.20;99.90;;;;;;5112859;28;20006;-39
2022/11/03 21:21:09;;;;;;;;;;;12.20;99.90;;;;;;5074289;28;19965;-40
2022/11/03 21:23:35;;;;;;;;;;;12.20;99.90;;;;;;5111279;28;19912;-38
2022/11/03 21:26:01;;;;;;;;;;;12.20;99.90;;;;;;5112615;28;20324;-38
2022/11/03 21:28:26;;;;;;;;;;;12.20;99.90;;;;;;5112309;28;19930;-38
2022/11/03 21:30:52;;;;;;;;;;;12.20;99.90;;;;;;5111936;28;19908;-39
2022/11/03 21:33:18;;;;;;;;;;;12.20;99.90;;;;;;5112075;28;20378;-39
2022/11/03 21:35:44;;;;;;;;;;;12.20;99.90;;;;;;5112699;28;19908;-39
2022/11/03 21:38:10;;;;;;;;;;;12.20;99.90;;;;;;5111448;28;20301;-38
2022/11/03 21:40:41;;;;;;;;;;;12.20;99.90;;;;;;5112219;28;20229;-38
2022/11/03 21:46:00;;;;;;;;;;;12.30;99.90;;;;;;5110834;28;19922;-43
2022/11/03 21:51:10;;;;;;;;;;;12.20;99.90;;;;;;5111058;28;19919;-40
2022/11/03 21:53:36;;;;;;;;;;;12.20;99.90;;;;;;5109159;28;19919;-40
2022/11/03 21:56:01;;;;;;;;;;;12.20;99.90;;;;;;5109999;28;20004;-38
2022/11/03 21:58:26;;;;;;;;;;;12.20;99.90;;;;;;5109463;28;19907;-45
2022/11/03 22:00:52;;;;;;;;;;;12.20;99.90;;;;;;5110411;28;19908;-41
2022/11/03 22:03:17;;;;;;;;;;;12.20;99.90;;;;;;5111843;28;19961;-38
2022/11/03 22:05:43;;;;;;;;;;;12.20;99.90;;;;;;5111385;28;19919;-38
2022/11/03 22:08:08;;;;;;;;;;;12.20;99.90;;;;;;5111873;28;20310;-38
2022/11/03 22:10:38;;;;;;;;;;;12.10;99.90;;;;;;5111905;28;20445;-38
2022/11/03 22:13:04;;;;;;;;;;;12.10;99.90;;;;;;5110839;28;20020;-39
2022/11/03 22:18:13;;;;;;;;;;;12.10;99.90;;;;;;5112177;28;19959;-38
2022/11/03 22:31:40;;;;;;;;;;;12.20;99.90;;;;;;5111049;28;19935;-43
2022/11/03 22:36:49;;;;;;;;;;;12.10;99.90;;;;;;5111976;28;19923;-38
2022/11/03 22:47:27;;;;;;;;;;;12.20;99.90;;;;;;5093924;28;19980;-39
2022/11/03 22:49:53;;;;;;;;;;;12.20;99.90;;;;;;5094412;28;20390;-38
2022/11/03 22:52:18;;;;;;;;;;;12.20;99.90;;;;;;5088704;28;19920;-41
2022/11/03 22:54:44;;;;;;;;;;;12.20;99.90;;;;;;5094568;28;19919;-39
2022/11/03 22:57:10;;;;;;;;;;;12.10;99.90;;;;;;5094143;28;19912;-40
2022/11/03 22:59:35;;;;;;;;;;;12.20;99.90;;;;;;5094033;28;20086;-39
2022/11/03 23:02:01;;;;;;;;;;;12.20;99.90;;;;;;5088128;28;20605;-39
2022/11/03 23:04:26;;;;;;;;;;;12.10;99.90;;;;;;5094255;28;19920;-39
2022/11/03 23:06:52;;;;;;;;;;;12.20;99.90;;;;;;5088616;28;19969;-39
2022/11/03 23:09:17;;;;;;;;;;;12.10;99.90;;;;;;5093778;28;19912;-39
2022/11/03 23:11:42;;;;;;;;;;;12.20;99.90;;;;;;5094724;28;20263;-39
2022/11/03 23:14:09;;;;;;;;;;;12.20;99.90;;;;;;5093097;28;19957;-39
2022/11/03 23:16:36;;;;;;;;;;;12.20;99.90;;;;;;5088377;28;19913;-41
2022/11/03 23:21:47;;;;;;;;;;;12.20;99.90;;;;;;5094526;28;19927;-38
2022/11/03 23:27:00;;;;;;;;;;;12.10;99.90;;;;;;5093785;28;19919;-38
2022/11/03 23:29:26;;;;;;;;;;;12.20;99.90;;;;;;5093496;28;20010;-38
2022/11/03 23:31:51;;;;;;;;;;;12.10;99.90;;;;;;5092851;28;20011;-38
2022/11/03 23:34:17;;;;;;;;;;;12.10;99.90;;;;;;5087706;28;19916;-39
2022/11/03 23:36:42;;;;;;;;;;;12.10;99.90;;;;;;5094412;28;19919;-40
2022/11/03 23:39:12;;;;;;;;;;;12.10;99.90;;;;;;5093439;28;20346;-40
2022/11/03 23:41:37;;;;;;;;;;;12.10;99.90;;;;;;5094339;28;19912;-39
2022/11/03 23:44:03;;;;;;;;;;;12.10;99.90;;;;;;5107158;28;20254;-38
2022/11/03 23:49:13;;;;;;;;;;;12.10;99.90;;;;;;5114186;28;20363;-38
2022/11/03 23:51:39;;;;;;;;;;;12.10;99.90;;;;;;5113105;28;19971;-38
2022/11/03 23:54:06;;;;;;;;;;;12.10;99.90;;;;;;5108144;28;19947;-41
2022/11/03 23:59:26;;;;;;;;;;;12.10;99.90;;;;;;5113660;28;19931;-39
